sensor_id;sensor_type;location;lat;lon;timestamp;P1;durP1;ratioP1;P2;durP2;ratioP2
55827;SDS011;41758;51.992;5.890;2022-07-23T00:01:37;3.53;;;1.83;;
55827;SDS011;41758;51.992;5.890;2022-07-23T00:04:03;4.20;;;1.98;;
55827;SDS011;41758;51.992;5.890;2022-07-23T00:06:29;3.97;;;2.00;;
55827;SDS011;41758;51.992;5.890;2022-07-23T00:08:54;4.28;;;2.20;;
55827;SDS011;41758;51.992;5.890;2022-07-23T00:11:20;3.58;;;2.10;;
55827;SDS011;41758;51.992;5.890;2022-07-23T00:13:47;4.47;;;1.90;;
55827;SDS011;41758;51.992;5.890;2022-07-23T00:16:13;5.35;;;2.20;;
55827;SDS011;41758;51.992;5.890;2022-07-23T00:18:39;3.72;;;2.00;;
55827;SDS011;41758;51.992;5.890;2022-07-23T00:21:04;4.20;;;2.13;;
55827;SDS011;41758;51.992;5.890;2022-07-23T00:23:30;6.03;;;2.00;;
55827;SDS011;41758;51.992;5.890;2022-07-23T00:25:56;5.68;;;2.17;;
55827;SDS011;41758;51.992;5.890;2022-07-23T00:28:22;3.50;;;1.85;;
55827;SDS011;41758;51.992;5.890;2022-07-23T00:30:48;4.50;;;2.30;;
55827;SDS011;41758;51.992;5.890;2022-07-23T00:33:13;5.13;;;2.22;;
55827;SDS011;41758;51.992;5.890;2022-07-23T00:35:39;4.80;;;2.20;;
55827;SDS011;41758;51.992;5.890;2022-07-23T00:38:09;3.20;;;1.98;;
55827;SDS011;41758;51.992;5.890;2022-07-23T00:40:36;4.63;;;2.42;;
55827;SDS011;41758;51.992;5.890;2022-07-23T00:43:02;3.72;;;2.08;;
55827;SDS011;41758;51.992;5.890;2022-07-23T00:45:29;5.20;;;2.13;;
55827;SDS011;41758;51.992;5.890;2022-07-23T00:47:55;3.47;;;2.10;;
55827;SDS011;41758;51.992;5.890;2022-07-23T00:50:21;4.40;;;2.03;;
55827;SDS011;41758;51.992;5.890;2022-07-23T00:52:46;4.75;;;2.83;;
55827;SDS011;41758;51.992;5.890;2022-07-23T00:55:12;6.22;;;2.40;;
55827;SDS011;41758;51.992;5.890;2022-07-23T00:57:39;5.03;;;2.38;;
55827;SDS011;41758;51.992;5.890;2022-07-23T01:00:06;4.22;;;2.38;;
55827;SDS011;41758;51.992;5.890;2022-07-23T01:02:34;4.38;;;2.30;;
55827;SDS011;41758;51.992;5.890;2022-07-23T01:05:00;8.45;;;4.82;;
55827;SDS011;41758;51.992;5.890;2022-07-23T01:07:25;5.97;;;2.92;;
55827;SDS011;41758;51.992;5.890;2022-07-23T01:09:52;5.10;;;2.45;;
55827;SDS011;41758;51.992;5.890;2022-07-23T01:12:19;6.68;;;2.40;;
55827;SDS011;41758;51.992;5.890;2022-07-23T01:14:45;4.05;;;2.63;;
55827;SDS011;41758;51.992;5.890;2022-07-23T01:17:18;3.55;;;2.30;;
55827;SDS011;41758;51.992;5.890;2022-07-23T01:19:43;5.18;;;2.55;;
55827;SDS011;41758;51.992;5.890;2022-07-23T01:22:09;4.90;;;2.55;;
55827;SDS011;41758;51.992;5.890;2022-07-23T01:24:35;4.00;;;2.40;;
55827;SDS011;41758;51.992;5.890;2022-07-23T01:27:03;4.78;;;2.58;;
55827;SDS011;41758;51.992;5.890;2022-07-23T01:29:31;5.35;;;2.40;;
55827;SDS011;41758;51.992;5.890;2022-07-23T01:32:00;4.20;;;2.63;;
55827;SDS011;41758;51.992;5.890;2022-07-23T01:34:26;4.63;;;2.50;;
55827;SDS011;41758;51.992;5.890;2022-07-23T01:36:51;7.78;;;2.65;;
55827;SDS011;41758;51.992;5.890;2022-07-23T01:39:17;5.30;;;2.80;;
55827;SDS011;41758;51.992;5.890;2022-07-23T01:41:43;5.90;;;3.20;;
55827;SDS011;41758;51.992;5.890;2022-07-23T01:44:08;7.90;;;3.60;;
55827;SDS011;41758;51.992;5.890;2022-07-23T01:46:37;8.15;;;3.60;;
55827;SDS011;41758;51.992;5.890;2022-07-23T01:49:03;4.85;;;2.83;;
55827;SDS011;41758;51.992;5.890;2022-07-23T01:54:31;4.82;;;2.80;;
55827;SDS011;41758;51.992;5.890;2022-07-23T01:57:00;4.15;;;2.53;;
55827;SDS011;41758;51.992;5.890;2022-07-23T01:59:26;4.32;;;2.60;;
55827;SDS011;41758;51.992;5.890;2022-07-23T02:01:52;5.15;;;2.83;;
55827;SDS011;41758;51.992;5.890;2022-07-23T02:04:19;7.88;;;3.42;;
55827;SDS011;41758;51.992;5.890;2022-07-23T02:06:46;5.50;;;3.13;;
55827;SDS011;41758;51.992;5.890;2022-07-23T02:09:12;8.88;;;3.03;;
55827;SDS011;41758;51.992;5.890;2022-07-23T02:11:38;6.07;;;3.08;;
55827;SDS011;41758;51.992;5.890;2022-07-23T02:14:04;6.38;;;3.00;;
55827;SDS011;41758;51.992;5.890;2022-07-23T02:16:29;5.88;;;2.70;;
55827;SDS011;41758;51.992;5.890;2022-07-23T02:19:00;5.20;;;2.63;;
55827;SDS011;41758;51.992;5.890;2022-07-23T02:21:26;5.15;;;2.67;;
55827;SDS011;41758;51.992;5.890;2022-07-23T02:23:52;5.10;;;2.88;;
55827;SDS011;41758;51.992;5.890;2022-07-23T02:26:18;5.28;;;3.05;;
55827;SDS011;41758;51.992;5.890;2022-07-23T02:28:45;7.47;;;3.58;;
55827;SDS011;41758;51.992;5.890;2022-07-23T02:31:10;5.57;;;2.83;;
55827;SDS011;41758;51.992;5.890;2022-07-23T02:33:36;5.35;;;2.92;;
55827;SDS011;41758;51.992;5.890;2022-07-23T02:36:02;5.78;;;2.55;;
55827;SDS011;41758;51.992;5.890;2022-07-23T02:38:27;5.65;;;3.08;;
55827;SDS011;41758;51.992;5.890;2022-07-23T02:40:53;5.47;;;3.05;;
55827;SDS011;41758;51.992;5.890;2022-07-23T02:43:19;6.03;;;2.97;;
55827;SDS011;41758;51.992;5.890;2022-07-23T02:45:45;6.00;;;2.80;;
55827;SDS011;41758;51.992;5.890;2022-07-23T02:48:10;7.03;;;2.88;;
55827;SDS011;41758;51.992;5.890;2022-07-23T02:50:42;6.38;;;3.40;;
55827;SDS011;41758;51.992;5.890;2022-07-23T02:53:08;6.03;;;3.20;;
55827;SDS011;41758;51.992;5.890;2022-07-23T02:55:34;5.85;;;3.08;;
55827;SDS011;41758;51.992;5.890;2022-07-23T02:58:01;5.13;;;2.60;;
55827;SDS011;41758;51.992;5.890;2022-07-23T03:00:27;5.10;;;2.60;;
55827;SDS011;41758;51.992;5.890;2022-07-23T03:02:53;5.40;;;2.70;;
55827;SDS011;41758;51.992;5.890;2022-07-23T03:05:19;4.68;;;2.42;;
55827;SDS011;41758;51.992;5.890;2022-07-23T03:07:45;6.25;;;2.85;;
55827;SDS011;41758;51.992;5.890;2022-07-23T03:10:10;4.35;;;2.40;;
55827;SDS011;41758;51.992;5.890;2022-07-23T03:12:36;4.63;;;2.53;;
55827;SDS011;41758;51.992;5.890;2022-07-23T03:15:02;7.15;;;2.30;;
55827;SDS011;41758;51.992;5.890;2022-07-23T03:17:28;6.22;;;2.40;;
55827;SDS011;41758;51.992;5.890;2022-07-23T03:19:54;6.45;;;2.40;;
55827;SDS011;41758;51.992;5.890;2022-07-23T03:22:22;5.07;;;2.63;;
55827;SDS011;41758;51.992;5.890;2022-07-23T03:24:47;5.68;;;2.90;;
55827;SDS011;41758;51.992;5.890;2022-07-23T03:27:22;6.43;;;2.95;;
55827;SDS011;41758;51.992;5.890;2022-07-23T03:29:52;6.53;;;3.15;;
55827;SDS011;41758;51.992;5.890;2022-07-23T03:32:19;6.30;;;2.95;;
55827;SDS011;41758;51.992;5.890;2022-07-23T03:34:45;5.45;;;2.80;;
55827;SDS011;41758;51.992;5.890;2022-07-23T03:37:11;5.93;;;2.80;;
55827;SDS011;41758;51.992;5.890;2022-07-23T03:39:37;5.90;;;3.00;;
55827;SDS011;41758;51.992;5.890;2022-07-23T03:42:04;8.38;;;3.10;;
55827;SDS011;41758;51.992;5.890;2022-07-23T03:44:30;7.07;;;3.38;;
55827;SDS011;41758;51.992;5.890;2022-07-23T03:46:56;5.63;;;2.85;;
55827;SDS011;41758;51.992;5.890;2022-07-23T03:49:22;6.63;;;3.58;;
55827;SDS011;41758;51.992;5.890;2022-07-23T03:51:48;5.43;;;3.15;;
55827;SDS011;41758;51.992;5.890;2022-07-23T03:54:14;5.90;;;3.35;;
55827;SDS011;41758;51.992;5.890;2022-07-23T03:56:39;5.60;;;3.13;;
55827;SDS011;41758;51.992;5.890;2022-07-23T03:59:05;5.82;;;3.10;;
55827;SDS011;41758;51.992;5.890;2022-07-23T04:01:32;7.45;;;3.35;;
55827;SDS011;41758;51.992;5.890;2022-07-23T04:03:57;6.10;;;3.30;;
55827;SDS011;41758;51.992;5.890;2022-07-23T04:06:24;6.57;;;3.17;;
55827;SDS011;41758;51.992;5.890;2022-07-23T04:08:51;8.02;;;3.13;;
55827;SDS011;41758;51.992;5.890;2022-07-23T04:11:17;6.50;;;3.10;;
55827;SDS011;41758;51.992;5.890;2022-07-23T04:13:43;6.35;;;3.25;;
55827;SDS011;41758;51.992;5.890;2022-07-23T04:16:10;4.18;;;2.70;;
55827;SDS011;41758;51.992;5.890;2022-07-23T04:18:35;6.18;;;2.80;;
55827;SDS011;41758;51.992;5.890;2022-07-23T04:21:10;4.95;;;2.67;;
55827;SDS011;41758;51.992;5.890;2022-07-23T04:23:36;5.72;;;2.80;;
55827;SDS011;41758;51.992;5.890;2022-07-23T04:26:02;4.32;;;2.60;;
55827;SDS011;41758;51.992;5.890;2022-07-23T04:28:29;5.35;;;2.80;;
55827;SDS011;41758;51.992;5.890;2022-07-23T04:30:57;5.57;;;3.03;;
55827;SDS011;41758;51.992;5.890;2022-07-23T04:33:24;6.07;;;3.20;;
55827;SDS011;41758;51.992;5.890;2022-07-23T04:35:53;5.75;;;3.10;;
55827;SDS011;41758;51.992;5.890;2022-07-23T04:38:19;4.80;;;2.90;;
55827;SDS011;41758;51.992;5.890;2022-07-23T04:40:47;5.28;;;2.90;;
55827;SDS011;41758;51.992;5.890;2022-07-23T04:43:13;7.05;;;3.25;;
55827;SDS011;41758;51.992;5.890;2022-07-23T04:45:44;5.05;;;3.22;;
55827;SDS011;41758;51.992;5.890;2022-07-23T04:48:10;4.70;;;3.10;;
55827;SDS011;41758;51.992;5.890;2022-07-23T04:50:36;8.52;;;3.40;;
55827;SDS011;41758;51.992;5.890;2022-07-23T04:53:03;5.45;;;2.92;;
55827;SDS011;41758;51.992;5.890;2022-07-23T04:55:30;6.93;;;3.10;;
55827;SDS011;41758;51.992;5.890;2022-07-23T04:57:56;5.00;;;3.15;;
55827;SDS011;41758;51.992;5.890;2022-07-23T05:00:22;5.10;;;3.10;;
55827;SDS011;41758;51.992;5.890;2022-07-23T05:02:48;5.88;;;3.15;;
55827;SDS011;41758;51.992;5.890;2022-07-23T05:05:14;6.18;;;2.97;;
55827;SDS011;41758;51.992;5.890;2022-07-23T05:07:41;5.60;;;3.13;;
55827;SDS011;41758;51.992;5.890;2022-07-23T05:10:07;6.13;;;2.92;;
55827;SDS011;41758;51.992;5.890;2022-07-23T05:12:33;4.78;;;2.90;;
55827;SDS011;41758;51.992;5.890;2022-07-23T05:14:58;4.60;;;2.80;;
55827;SDS011;41758;51.992;5.890;2022-07-23T05:17:25;6.47;;;3.10;;
55827;SDS011;41758;51.992;5.890;2022-07-23T05:19:51;5.35;;;2.75;;
55827;SDS011;41758;51.992;5.890;2022-07-23T05:22:17;4.20;;;2.72;;
55827;SDS011;41758;51.992;5.890;2022-07-23T05:24:43;5.82;;;2.85;;
55827;SDS011;41758;51.992;5.890;2022-07-23T05:27:09;6.13;;;2.72;;
55827;SDS011;41758;51.992;5.890;2022-07-23T05:29:34;6.05;;;2.60;;
55827;SDS011;41758;51.992;5.890;2022-07-23T05:32:00;5.03;;;2.40;;
55827;SDS011;41758;51.992;5.890;2022-07-23T05:34:28;5.75;;;2.33;;
55827;SDS011;41758;51.992;5.890;2022-07-23T05:36:55;4.88;;;2.88;;
55827;SDS011;41758;51.992;5.890;2022-07-23T05:39:21;4.32;;;2.35;;
55827;SDS011;41758;51.992;5.890;2022-07-23T05:41:47;4.55;;;2.10;;
55827;SDS011;41758;51.992;5.890;2022-07-23T05:44:12;5.32;;;2.28;;
55827;SDS011;41758;51.992;5.890;2022-07-23T05:46:41;4.65;;;2.22;;
55827;SDS011;41758;51.992;5.890;2022-07-23T05:49:09;3.35;;;1.90;;
55827;SDS011;41758;51.992;5.890;2022-07-23T05:51:55;3.92;;;2.08;;
55827;SDS011;41758;51.992;5.890;2022-07-23T05:54:31;3.28;;;1.80;;
55827;SDS011;41758;51.992;5.890;2022-07-23T05:56:59;3.35;;;2.10;;
55827;SDS011;41758;51.992;5.890;2022-07-23T05:59:25;5.22;;;2.03;;
55827;SDS011;41758;51.992;5.890;2022-07-23T06:01:51;4.13;;;2.03;;
55827;SDS011;41758;51.992;5.890;2022-07-23T06:04:17;5.07;;;2.00;;
55827;SDS011;41758;51.992;5.890;2022-07-23T06:06:53;4.10;;;2.05;;
55827;SDS011;41758;51.992;5.890;2022-07-23T06:09:19;3.63;;;1.73;;
55827;SDS011;41758;51.992;5.890;2022-07-23T06:11:45;3.33;;;1.70;;
55827;SDS011;41758;51.992;5.890;2022-07-23T06:14:12;3.97;;;1.70;;
55827;SDS011;41758;51.992;5.890;2022-07-23T06:16:48;4.45;;;1.65;;
55827;SDS011;41758;51.992;5.890;2022-07-23T06:19:14;6.43;;;1.90;;
55827;SDS011;41758;51.992;5.890;2022-07-23T06:21:40;3.65;;;1.70;;
55827;SDS011;41758;51.992;5.890;2022-07-23T06:24:06;4.20;;;1.80;;
55827;SDS011;41758;51.992;5.890;2022-07-23T06:26:32;4.13;;;1.80;;
55827;SDS011;41758;51.992;5.890;2022-07-23T06:28:58;4.28;;;2.00;;
55827;SDS011;41758;51.992;5.890;2022-07-23T06:31:25;3.08;;;1.60;;
55827;SDS011;41758;51.992;5.890;2022-07-23T06:33:51;3.72;;;1.50;;
55827;SDS011;41758;51.992;5.890;2022-07-23T06:36:17;5.32;;;1.92;;
55827;SDS011;41758;51.992;5.890;2022-07-23T06:38:42;4.15;;;1.80;;
55827;SDS011;41758;51.992;5.890;2022-07-23T06:41:08;5.18;;;2.15;;
55827;SDS011;41758;51.992;5.890;2022-07-23T06:43:34;5.65;;;2.15;;
55827;SDS011;41758;51.992;5.890;2022-07-23T06:46:00;3.95;;;2.10;;
55827;SDS011;41758;51.992;5.890;2022-07-23T06:48:26;4.88;;;2.08;;
55827;SDS011;41758;51.992;5.890;2022-07-23T06:50:54;4.70;;;2.03;;
55827;SDS011;41758;51.992;5.890;2022-07-23T06:53:23;6.68;;;2.42;;
55827;SDS011;41758;51.992;5.890;2022-07-23T06:55:48;4.15;;;2.08;;
55827;SDS011;41758;51.992;5.890;2022-07-23T06:58:14;5.75;;;2.10;;
55827;SDS011;41758;51.992;5.890;2022-07-23T07:00:40;4.28;;;2.05;;
55827;SDS011;41758;51.992;5.890;2022-07-23T07:03:06;4.82;;;2.13;;
55827;SDS011;41758;51.992;5.890;2022-07-23T07:05:31;6.70;;;2.15;;
55827;SDS011;41758;51.992;5.890;2022-07-23T07:07:57;4.28;;;1.90;;
55827;SDS011;41758;51.992;5.890;2022-07-23T07:10:23;5.05;;;2.00;;
55827;SDS011;41758;51.992;5.890;2022-07-23T07:12:49;4.60;;;2.10;;
55827;SDS011;41758;51.992;5.890;2022-07-23T07:15:15;5.63;;;2.15;;
55827;SDS011;41758;51.992;5.890;2022-07-23T07:17:40;5.85;;;2.03;;
55827;SDS011;41758;51.992;5.890;2022-07-23T07:20:07;3.80;;;2.00;;
55827;SDS011;41758;51.992;5.890;2022-07-23T07:22:33;4.55;;;1.90;;
55827;SDS011;41758;51.992;5.890;2022-07-23T07:24:59;6.03;;;2.00;;
55827;SDS011;41758;51.992;5.890;2022-07-23T07:27:25;3.88;;;2.10;;
55827;SDS011;41758;51.992;5.890;2022-07-23T07:29:50;4.05;;;1.95;;
55827;SDS011;41758;51.992;5.890;2022-07-23T07:32:16;3.63;;;2.00;;
55827;SDS011;41758;51.992;5.890;2022-07-23T07:34:42;4.72;;;2.30;;
55827;SDS011;41758;51.992;5.890;2022-07-23T07:37:07;3.40;;;1.90;;
55827;SDS011;41758;51.992;5.890;2022-07-23T07:39:33;4.65;;;1.80;;
55827;SDS011;41758;51.992;5.890;2022-07-23T07:41:59;3.63;;;1.88;;
55827;SDS011;41758;51.992;5.890;2022-07-23T07:44:24;7.20;;;2.10;;
55827;SDS011;41758;51.992;5.890;2022-07-23T07:46:50;4.85;;;1.90;;
55827;SDS011;41758;51.992;5.890;2022-07-23T07:49:16;3.58;;;2.00;;
55827;SDS011;41758;51.992;5.890;2022-07-23T07:51:44;3.63;;;1.80;;
55827;SDS011;41758;51.992;5.890;2022-07-23T07:54:10;4.78;;;1.95;;
55827;SDS011;41758;51.992;5.890;2022-07-23T07:56:36;5.05;;;2.10;;
55827;SDS011;41758;51.992;5.890;2022-07-23T07:59:02;3.45;;;2.00;;
55827;SDS011;41758;51.992;5.890;2022-07-23T08:01:28;3.88;;;1.90;;
55827;SDS011;41758;51.992;5.890;2022-07-23T08:03:54;4.80;;;1.90;;
55827;SDS011;41758;51.992;5.890;2022-07-23T08:06:19;4.38;;;2.03;;
55827;SDS011;41758;51.992;5.890;2022-07-23T08:08:45;3.03;;;1.70;;
55827;SDS011;41758;51.992;5.890;2022-07-23T08:11:10;4.70;;;2.10;;
55827;SDS011;41758;51.992;5.890;2022-07-23T08:13:36;3.72;;;1.80;;
55827;SDS011;41758;51.992;5.890;2022-07-23T08:16:02;4.22;;;1.90;;
55827;SDS011;41758;51.992;5.890;2022-07-23T08:18:28;3.90;;;2.00;;
55827;SDS011;41758;51.992;5.890;2022-07-23T08:20:53;4.60;;;1.90;;
55827;SDS011;41758;51.992;5.890;2022-07-23T08:23:19;4.20;;;1.90;;
55827;SDS011;41758;51.992;5.890;2022-07-23T08:25:48;4.43;;;2.03;;
55827;SDS011;41758;51.992;5.890;2022-07-23T08:28:14;4.57;;;2.10;;
55827;SDS011;41758;51.992;5.890;2022-07-23T08:30:41;4.68;;;1.90;;
55827;SDS011;41758;51.992;5.890;2022-07-23T08:33:15;7.20;;;2.15;;
55827;SDS011;41758;51.992;5.890;2022-07-23T08:35:46;4.10;;;2.10;;
55827;SDS011;41758;51.992;5.890;2022-07-23T08:38:14;3.17;;;1.70;;
55827;SDS011;41758;51.992;5.890;2022-07-23T08:40:41;4.90;;;2.00;;
55827;SDS011;41758;51.992;5.890;2022-07-23T08:43:13;3.90;;;2.08;;
55827;SDS011;41758;51.992;5.890;2022-07-23T08:45:46;4.30;;;2.40;;
55827;SDS011;41758;51.992;5.890;2022-07-23T08:48:14;2.55;;;1.60;;
55827;SDS011;41758;51.992;5.890;2022-07-23T08:50:42;4.28;;;1.90;;
55827;SDS011;41758;51.992;5.890;2022-07-23T08:53:09;4.88;;;1.90;;
55827;SDS011;41758;51.992;5.890;2022-07-23T08:55:35;4.65;;;1.88;;
55827;SDS011;41758;51.992;5.890;2022-07-23T08:58:01;3.63;;;1.92;;
55827;SDS011;41758;51.992;5.890;2022-07-23T09:00:27;3.53;;;1.80;;
55827;SDS011;41758;51.992;5.890;2022-07-23T09:02:53;3.95;;;2.25;;
55827;SDS011;41758;51.992;5.890;2022-07-23T09:05:19;3.78;;;1.85;;
55827;SDS011;41758;51.992;5.890;2022-07-23T09:10:30;3.53;;;1.80;;
55827;SDS011;41758;51.992;5.890;2022-07-23T09:13:46;2.95;;;1.70;;
55827;SDS011;41758;51.992;5.890;2022-07-23T09:16:17;3.72;;;1.95;;
55827;SDS011;41758;51.992;5.890;2022-07-23T09:18:57;4.93;;;1.80;;
55827;SDS011;41758;51.992;5.890;2022-07-23T09:24:09;3.33;;;1.90;;
55827;SDS011;41758;51.992;5.890;2022-07-23T09:34:34;4.20;;;2.00;;
55827;SDS011;41758;51.992;5.890;2022-07-23T09:37:10;4.68;;;1.80;;
55827;SDS011;41758;51.992;5.890;2022-07-23T09:39:38;4.80;;;2.20;;
55827;SDS011;41758;51.992;5.890;2022-07-23T09:42:24;4.30;;;2.20;;
55827;SDS011;41758;51.992;5.890;2022-07-23T09:44:51;6.63;;;2.67;;
55827;SDS011;41758;51.992;5.890;2022-07-23T09:47:18;3.72;;;1.92;;
55827;SDS011;41758;51.992;5.890;2022-07-23T09:50:04;3.83;;;1.80;;
55827;SDS011;41758;51.992;5.890;2022-07-23T09:52:45;4.32;;;2.08;;
55827;SDS011;41758;51.992;5.890;2022-07-23T09:55:13;3.65;;;1.80;;
55827;SDS011;41758;51.992;5.890;2022-07-23T09:57:40;4.18;;;2.10;;
55827;SDS011;41758;51.992;5.890;2022-07-23T10:00:07;3.17;;;1.73;;
55827;SDS011;41758;51.992;5.890;2022-07-23T10:02:35;3.42;;;1.85;;
55827;SDS011;41758;51.992;5.890;2022-07-23T10:05:21;5.47;;;2.20;;
55827;SDS011;41758;51.992;5.890;2022-07-23T10:08:26;3.20;;;1.90;;
55827;SDS011;41758;51.992;5.890;2022-07-23T10:11:12;2.78;;;1.67;;
55827;SDS011;41758;51.992;5.890;2022-07-23T10:14:01;4.93;;;1.95;;
55827;SDS011;41758;51.992;5.890;2022-07-23T10:16:40;3.40;;;1.90;;
55827;SDS011;41758;51.992;5.890;2022-07-23T10:19:06;3.22;;;2.00;;
55827;SDS011;41758;51.992;5.890;2022-07-23T10:21:43;3.90;;;2.30;;
55827;SDS011;41758;51.992;5.890;2022-07-23T10:24:18;5.65;;;2.03;;
55827;SDS011;41758;51.992;5.890;2022-07-23T10:26:55;3.28;;;1.90;;
55827;SDS011;41758;51.992;5.890;2022-07-23T10:32:17;3.33;;;1.80;;
55827;SDS011;41758;51.992;5.890;2022-07-23T10:37:57;3.92;;;2.10;;
55827;SDS011;41758;51.992;5.890;2022-07-23T10:40:28;4.82;;;1.75;;
55827;SDS011;41758;51.992;5.890;2022-07-23T10:42:58;4.28;;;2.15;;
55827;SDS011;41758;51.992;5.890;2022-07-23T10:47:53;4.20;;;2.00;;
55827;SDS011;41758;51.992;5.890;2022-07-23T10:50:21;4.60;;;1.65;;
55827;SDS011;41758;51.992;5.890;2022-07-23T10:58:16;3.15;;;1.70;;
55827;SDS011;41758;51.992;5.890;2022-07-23T11:00:44;2.83;;;1.48;;
55827;SDS011;41758;51.992;5.890;2022-07-23T11:03:30;3.38;;;1.80;;
55827;SDS011;41758;51.992;5.890;2022-07-23T11:05:57;4.20;;;1.85;;
55827;SDS011;41758;51.992;5.890;2022-07-23T11:08:23;3.88;;;1.50;;
55827;SDS011;41758;51.992;5.890;2022-07-23T11:10:53;4.50;;;1.77;;
55827;SDS011;41758;51.992;5.890;2022-07-23T11:13:41;4.78;;;1.85;;
55827;SDS011;41758;51.992;5.890;2022-07-23T11:16:19;3.40;;;1.95;;
55827;SDS011;41758;51.992;5.890;2022-07-23T11:34:42;4.72;;;1.80;;
55827;SDS011;41758;51.992;5.890;2022-07-23T11:37:12;3.40;;;1.52;;
55827;SDS011;41758;51.992;5.890;2022-07-23T11:39:55;3.08;;;1.60;;
55827;SDS011;41758;51.992;5.890;2022-07-23T11:42:22;2.33;;;1.40;;
55827;SDS011;41758;51.992;5.890;2022-07-23T11:44:49;2.08;;;1.30;;
55827;SDS011;41758;51.992;5.890;2022-07-23T11:47:20;4.40;;;1.60;;
55827;SDS011;41758;51.992;5.890;2022-07-23T11:49:58;6.20;;;1.80;;
55827;SDS011;41758;51.992;5.890;2022-07-23T11:52:26;4.68;;;1.85;;
55827;SDS011;41758;51.992;5.890;2022-07-23T11:54:57;4.07;;;1.75;;
55827;SDS011;41758;51.992;5.890;2022-07-23T11:57:29;3.45;;;1.60;;
55827;SDS011;41758;51.992;5.890;2022-07-23T12:02:43;3.33;;;1.60;;
55827;SDS011;41758;51.992;5.890;2022-07-23T12:05:14;2.45;;;1.50;;
55827;SDS011;41758;51.992;5.890;2022-07-23T12:07:48;3.10;;;1.83;;
55827;SDS011;41758;51.992;5.890;2022-07-23T12:11:03;3.70;;;1.55;;
55827;SDS011;41758;51.992;5.890;2022-07-23T12:13:36;4.10;;;1.75;;
55827;SDS011;41758;51.992;5.890;2022-07-23T12:16:15;4.93;;;2.25;;
55827;SDS011;41758;51.992;5.890;2022-07-23T12:18:43;2.88;;;1.40;;
55827;SDS011;41758;51.992;5.890;2022-07-23T12:21:10;3.15;;;1.67;;
55827;SDS011;41758;51.992;5.890;2022-07-23T12:23:35;3.00;;;1.80;;
55827;SDS011;41758;51.992;5.890;2022-07-23T12:26:03;2.50;;;1.20;;
55827;SDS011;41758;51.992;5.890;2022-07-23T12:28:30;2.83;;;1.60;;
55827;SDS011;41758;51.992;5.890;2022-07-23T12:30:58;2.20;;;1.40;;
55827;SDS011;41758;51.992;5.890;2022-07-23T12:33:25;2.97;;;1.38;;
55827;SDS011;41758;51.992;5.890;2022-07-23T12:35:55;2.40;;;1.30;;
55827;SDS011;41758;51.992;5.890;2022-07-23T12:38:39;3.67;;;1.60;;
55827;SDS011;41758;51.992;5.890;2022-07-23T12:41:06;3.50;;;1.60;;
55827;SDS011;41758;51.992;5.890;2022-07-23T12:43:35;3.10;;;1.70;;
55827;SDS011;41758;51.992;5.890;2022-07-23T12:46:03;3.20;;;1.60;;
55827;SDS011;41758;51.992;5.890;2022-07-23T12:48:31;2.80;;;1.45;;
55827;SDS011;41758;51.992;5.890;2022-07-23T12:51:05;2.92;;;1.52;;
55827;SDS011;41758;51.992;5.890;2022-07-23T12:53:44;2.28;;;1.30;;
55827;SDS011;41758;51.992;5.890;2022-07-23T12:56:30;2.35;;;1.33;;
55827;SDS011;41758;51.992;5.890;2022-07-23T13:01:33;3.13;;;1.52;;
55827;SDS011;41758;51.992;5.890;2022-07-23T13:04:02;4.82;;;1.75;;
55827;SDS011;41758;51.992;5.890;2022-07-23T13:06:33;2.97;;;1.55;;
55827;SDS011;41758;51.992;5.890;2022-07-23T13:09:06;3.08;;;1.70;;
55827;SDS011;41758;51.992;5.890;2022-07-23T13:11:33;2.88;;;1.50;;
55827;SDS011;41758;51.992;5.890;2022-07-23T13:14:03;3.42;;;1.65;;
55827;SDS011;41758;51.992;5.890;2022-07-23T13:16:29;3.25;;;1.52;;
55827;SDS011;41758;51.992;5.890;2022-07-23T13:19:02;3.13;;;1.60;;
55827;SDS011;41758;51.992;5.890;2022-07-23T13:21:28;3.05;;;1.50;;
55827;SDS011;41758;51.992;5.890;2022-07-23T13:23:54;6.03;;;1.88;;
55827;SDS011;41758;51.992;5.890;2022-07-23T13:26:21;2.80;;;1.70;;
55827;SDS011;41758;51.992;5.890;2022-07-23T13:28:47;2.70;;;1.55;;
55827;SDS011;41758;51.992;5.890;2022-07-23T13:31:13;2.40;;;1.40;;
55827;SDS011;41758;51.992;5.890;2022-07-23T13:33:39;4.40;;;1.92;;
55827;SDS011;41758;51.992;5.890;2022-07-23T13:36:05;3.22;;;1.60;;
55827;SDS011;41758;51.992;5.890;2022-07-23T13:38:31;4.13;;;1.80;;
55827;SDS011;41758;51.992;5.890;2022-07-23T13:40:58;4.95;;;1.70;;
55827;SDS011;41758;51.992;5.890;2022-07-23T13:43:28;3.95;;;1.80;;
55827;SDS011;41758;51.992;5.890;2022-07-23T13:45:56;3.25;;;1.85;;
55827;SDS011;41758;51.992;5.890;2022-07-23T13:48:22;3.70;;;1.75;;
55827;SDS011;41758;51.992;5.890;2022-07-23T13:50:48;3.80;;;1.67;;
55827;SDS011;41758;51.992;5.890;2022-07-23T13:53:18;3.15;;;1.92;;
55827;SDS011;41758;51.992;5.890;2022-07-23T13:55:46;3.30;;;1.70;;
55827;SDS011;41758;51.992;5.890;2022-07-23T13:58:13;3.58;;;1.80;;
55827;SDS011;41758;51.992;5.890;2022-07-23T14:00:41;3.47;;;1.65;;
55827;SDS011;41758;51.992;5.890;2022-07-23T14:03:13;3.20;;;1.90;;
55827;SDS011;41758;51.992;5.890;2022-07-23T14:05:39;3.20;;;1.70;;
55827;SDS011;41758;51.992;5.890;2022-07-23T14:08:06;5.38;;;2.08;;
55827;SDS011;41758;51.992;5.890;2022-07-23T14:10:32;3.50;;;1.92;;
55827;SDS011;41758;51.992;5.890;2022-07-23T14:12:57;3.65;;;2.00;;
55827;SDS011;41758;51.992;5.890;2022-07-23T14:15:24;3.60;;;1.70;;
55827;SDS011;41758;51.992;5.890;2022-07-23T14:17:52;4.68;;;1.90;;
55827;SDS011;41758;51.992;5.890;2022-07-23T14:20:18;4.10;;;2.13;;
55827;SDS011;41758;51.992;5.890;2022-07-23T14:22:44;3.38;;;1.60;;
55827;SDS011;41758;51.992;5.890;2022-07-23T14:25:10;4.90;;;2.20;;
55827;SDS011;41758;51.992;5.890;2022-07-23T14:27:36;3.42;;;1.88;;
55827;SDS011;41758;51.992;5.890;2022-07-23T14:30:03;4.35;;;1.95;;
55827;SDS011;41758;51.992;5.890;2022-07-23T14:32:31;2.83;;;1.70;;
55827;SDS011;41758;51.992;5.890;2022-07-23T14:34:57;3.42;;;1.83;;
55827;SDS011;41758;51.992;5.890;2022-07-23T14:37:22;2.70;;;1.70;;
55827;SDS011;41758;51.992;5.890;2022-07-23T14:40:05;4.70;;;1.73;;
55827;SDS011;41758;51.992;5.890;2022-07-23T14:42:32;2.97;;;1.80;;
55827;SDS011;41758;51.992;5.890;2022-07-23T14:45:03;7.10;;;1.88;;
55827;SDS011;41758;51.992;5.890;2022-07-23T14:47:31;3.67;;;2.03;;
55827;SDS011;41758;51.992;5.890;2022-07-23T14:49:57;3.47;;;1.70;;
55827;SDS011;41758;51.992;5.890;2022-07-23T14:52:23;4.72;;;2.10;;
55827;SDS011;41758;51.992;5.890;2022-07-23T14:54:48;4.20;;;1.90;;
55827;SDS011;41758;51.992;5.890;2022-07-23T14:57:17;4.10;;;1.75;;
55827;SDS011;41758;51.992;5.890;2022-07-23T14:59:46;3.50;;;1.83;;
55827;SDS011;41758;51.992;5.890;2022-07-23T15:02:14;4.18;;;2.08;;
55827;SDS011;41758;51.992;5.890;2022-07-23T15:04:42;3.45;;;1.73;;
55827;SDS011;41758;51.992;5.890;2022-07-23T15:07:08;3.78;;;1.90;;
55827;SDS011;41758;51.992;5.890;2022-07-23T15:09:34;4.18;;;1.90;;
55827;SDS011;41758;51.992;5.890;2022-07-23T15:12:00;4.68;;;1.98;;
55827;SDS011;41758;51.992;5.890;2022-07-23T15:14:25;3.63;;;1.92;;
55827;SDS011;41758;51.992;5.890;2022-07-23T15:16:51;3.10;;;1.60;;
55827;SDS011;41758;51.992;5.890;2022-07-23T15:19:17;3.67;;;2.00;;
55827;SDS011;41758;51.992;5.890;2022-07-23T15:21:42;3.67;;;2.08;;
55827;SDS011;41758;51.992;5.890;2022-07-23T15:24:08;5.50;;;2.25;;
55827;SDS011;41758;51.992;5.890;2022-07-23T15:26:36;4.45;;;1.95;;
55827;SDS011;41758;51.992;5.890;2022-07-23T15:29:05;4.18;;;1.95;;
55827;SDS011;41758;51.992;5.890;2022-07-23T15:31:31;3.65;;;2.20;;
55827;SDS011;41758;51.992;5.890;2022-07-23T15:33:57;3.72;;;2.13;;
55827;SDS011;41758;51.992;5.890;2022-07-23T15:36:23;4.07;;;1.90;;
55827;SDS011;41758;51.992;5.890;2022-07-23T15:38:49;2.65;;;1.65;;
55827;SDS011;41758;51.992;5.890;2022-07-23T15:41:14;4.18;;;2.08;;
55827;SDS011;41758;51.992;5.890;2022-07-23T15:43:40;4.07;;;2.10;;
55827;SDS011;41758;51.992;5.890;2022-07-23T15:46:08;3.45;;;1.98;;